Rogue Valley International Medford Airport
KMFR : now visible

Airfield :











YOU CAN JOIN US ON...

 
LOGIN :

Register | Disclaimer

   EN    FR    IT 

 









Legend :    VFR   Marginal VFR   IFR   Intensive IFR   Very Intensive IFR
Visi :
Ceiling :
>= 8 km
>= 3000ft
5 to 8 km
1000 to 3000 ft
1500m to 5 km
500 to 1000 ft
800 to 1500m
200 to 500 ft
< 800m
< 200 ft
Symbols :   Thunderstorms  Fog  Heavy snow  Heavy precipitations  Wind > 20 kt






- Airport Elevation : 1335 ft
- IATA code : MFR


KMFR - Rogue Valley International Medford

CURRENT METAR :
  • 181653Z 06003KT 10SM OVC055 03/01 A3026 RMK AO2 SLP255 T00330006

EXPIRED METARs :
  • 181553Z 22005KT 10SM OVC060 02/00 A3023 RMK AO2 SLP246 T00220000
  • 181453Z 05005KT 10SM OVC065 02/00 A3022 RMK AO2 SLP241 T00220000 53010

TAF KMFR
Valid from the 18 at 12:00 until the 19 at 12:00 UTC


181120Z 1812/1912 13004KT P6SM SCT060 OVC080 WS020/20035KT
FM181400 VRB03KT 6SM -RA BR SCT015 BKN035 WS020/20040KT
FM181900 13005KT P6SM -SHRA OVC040
FM190600 VRB02KT 6SM BR SCT010 SCT035



MET'MAP, your aeronautical weather chart ! - Copyright ORBIFLY December 2007 - Disclaimer

ORBIFLY MET'MAP TEAM :

Programming & Development : Alexandra Zaïnal
Concept & original design : Baudouin d'Aumeries
Assistance for programming : Marc-Olivier Méhu
Technical & hardware support : Manuel Goepfert

Contact : metmap@orbifly.com




SOURCES & CREDITS :

   NOAA       Earth
Advisory